Airfield :
LOGIN :

Register | Disclaimer

   EN    FR    IT 

 










Legend :    VFR   Marginal VFR   IFR   Intensive IFR   Very Intensive IFR
Visi :
Ceiling :
>= 8 km
>= 3000ft
5 to 8 km
1000 to 3000 ft
1500m to 5 km
500 to 1000 ft
800 to 1500m
200 to 500 ft
< 800m
< 200 ft
Symbols :   Thunderstorms  Fog  Heavy snow  Heavy precipitations  Wind > 20 kt
SIGMETs :     Misc.  Thunderstorms  Icing  Turbulence  Mountain Waves  Volcanic Ashes







- Airport Elevation : 1046 ft
- IATA code : NUE


EDDN - Nuremberg

CURRENT METAR :
  • 291050Z 27006KT 200V310 9999 FEW034 BKN080 10/03 Q1017 NOSIG

EXPIRED METARs :
  • 291020Z VRB04KT 9999 FEW025 BKN075 10/03 Q1017 NOSIG
  • 290950Z VRB04KT 9999 FEW044 BKN080 10/03 Q1018 NOSIG
  • 290920Z 28003KT 190V320 9999 SCT026 SCT035 09/03 Q1018 NOSIG
  • 290850Z 30005KT 260V350 9999 SCT025 SCT035 08/03 Q1018 NOSIG
  • 290820Z 24004KT 160V280 9999 BKN025 09/03 Q1018 NOSIG

TAF TAF EDDN
Valid from the 29 at 06:00 until the 30 at 06:00 UTC


290500Z 2906/3006 19004KT 9999 SCT020 BKN040
PROB30
TEMPO 2906/2908 BKN012
BECMG 2909/2911 27006KT
BECMG 2916/2918 VRB03KT
BECMG 2922/2924 09005KT
No reported NOTAMs for that airfield.



MET'MAP, your aeronautical weather chart ! - Copyright ORBIFLY December 2007 - Disclaimer

ORBIFLY MET'MAP TEAM :

Programming & Development : Alexandra Zaïnal
Concept & Development : Baudouin d'Aumeries
Co-Development & Prog : Marc-Olivier Méhu
Technical & hardware support : Manuel Goepfert

Contact : metmap@orbifly.com




SOURCES & CREDITS :

   NOAA